Barcelona Knutsen — EACW — position and weather

sailwx.info

Track history (hours):
 
Tides and Currents Weather Stations Pressure Air Temp Water Temp Dewpoint Dewpoint Depression Visibility Wind Speed Wind Dir Waves Ship Positions

Barcelona Knutsen

Last reported at 2017-Jul-26 04:00 UTC. Time now 2017-Jul-27 22:38 UTC.
Position N 25°19' W 079°36'.

Length 290 m; draft 9.8 m.

Type: Tanker. MMSI: 224436000.

Date/timePositionNaut miles runAvg speedWind from/ knotsBaromVisibWave heightAir tempDewpointWater temp
2017-Jul-26 04:00N 25°19' W 079°36'917.4
2017-Jul-26 03:31N 25°28' W 079°36'816.8
2017-Jul-26 03:01N 25°36' W 079°37'816.0
2017-Jul-26 02:31N 25°44' W 079°36'816.0
2017-Jul-26 02:00N 25°52' W 079°33'816.0
2017-Jul-26 01:31N 25°59' W 079°33'815.9
2017-Jul-26 01:01N 26°07' W 079°32'815.6
2017-Jul-26 00:30N 26°15' W 079°29'917.1
2017-Jul-26 00:00N 26°18' W 079°20'3012.0
2017-Jul-25 21:29N 26°30' W 078°49'  
2017-Jul-18 17:49N 34°46' W 015°01'1019.8
2017-Jul-18 17:20N 34°47' W 014°49'720.0
2017-Jul-18 17:00N 34°48' W 014°41'1020.0
2017-Jul-18 16:30N 34°50' W 014°29'1019.9
2017-Jul-18 16:00N 34°51' W 014°17'1120.1
2017-Jul-18 15:28N 34°53' W 014°04'1220.3
2017-Jul-18 14:52N 34°55' W 013°50'1820.1
2017-Jul-18 13:58N 34°58' W 013°28'6420.1
2017-Jul-18 10:47N 35°09' W 012°11'1019.9
2017-Jul-18 10:17N 35°11' W 011°59'519.6
2017-Jul-18 10:00N 35°12' W 011°52'1619.8
2017-Jul-18 09:12N 35°15' W 011°33'1419.7
2017-Jul-18 08:30N 35°16' W 011°16'1020.0
2017-Jul-18 08:00N 35°18' W 011°04'1119.9
2017-Jul-18 07:27N 35°20' W 010°51'1119.9
2017-Jul-18 06:55N 35°22' W 010°38'820.2
2017-Jul-18 06:30N 35°23' W 010°28'1620.1
2017-Jul-18 05:42N 35°25' W 010°08'420.2
2017-Jul-18 05:30N 35°26' W 010°03'1020.2
2017-Jul-18 05:00N 35°28' W 009°51'1020.2
2017-Jul-18 04:31N 35°29' W 009°39'1020.1
2017-Jul-18 04:00N 35°31' W 009°27'1020.2
2017-Jul-18 03:31N 35°33' W 009°15'1020.1
2017-Jul-18 03:01N 35°35' W 009°03'1020.2
2017-Jul-18 02:30N 35°36' W 008°50'1020.1
2017-Jul-18 02:00N 35°37' W 008°38'1020.3
2017-Jul-18 01:30N 35°39' W 008°26'1019.9
2017-Jul-18 01:00N 35°41' W 008°13'1019.9
2017-Jul-18 00:30N 35°43' W 008°02'1019.9
2017-Jul-17 23:59N 35°45' W 007°49'1120.4
2017-Jul-17 23:28N 35°46' W 007°36'1020.5
2017-Jul-17 23:00N 35°48' W 007°24'1020.4
2017-Jul-17 22:30N 35°50' W 007°12'1420.6
2017-Jul-17 21:51N 35°52' W 006°56'720.4
2017-Jul-17 21:30N 35°54' W 006°47'1820.5
2017-Jul-17 20:38N 35°56' W 006°26'320.5
2017-Jul-17 20:29N 35°57' W 006°22'1120.4
2017-Jul-17 19:57N 35°57' W 006°09'1120.9
2017-Jul-17 19:27N 35°57' W 005°55'920.8
2017-Jul-17 19:00N 35°57' W 005°44'1020.8
2017-Jul-17 18:30N 35°59' W 005°31'714.4
2017-Jul-17 18:00N 36°03' W 005°24'1 2.2
2017-Jul-17 17:30N 36°04' W 005°23'0 0.7
2017-Jul-17 17:00N 36°04' W 005°23'2 3.5
2017-Jul-17 16:30N 36°05' W 005°21'4 8.2
2017-Jul-17 16:00N 36°07' W 005°17'2 3.5
2017-Jul-17 15:30N 36°09' W 005°17'0 0.0
2017-Jul-17 14:57N 36°09' W 005°17'0 0.1
2017-Jul-17 14:30N 36°09' W 005°17'0 0.1
2017-Jul-17 14:00N 36°09' W 005°17'0 0.0
2017-Jul-17 13:30N 36°09' W 005°17'  
Track history (hours):
 
Tides and Currents Weather Stations Pressure Air Temp Water Temp Dewpoint Dewpoint Depression Visibility Wind Speed Wind Dir Waves Ship Positions

Barcelona Knutsen

Last reported at 2017-Jul-26 04:00 UTC. Time now 2017-Jul-27 22:38 UTC.
Position N 25°19' W 079°36'.

Length 290 m; draft 9.8 m.

Type: Tanker. MMSI: 224436000.

Date/timePositionNaut miles runAvg speedWind from/ knotsBaromVisibWave heightAir tempDewpointWater temp
2017-Jul-26 04:00N 25°19' W 079°36'917.4
2017-Jul-26 03:31N 25°28' W 079°36'816.8
2017-Jul-26 03:01N 25°36' W 079°37'816.0
2017-Jul-26 02:31N 25°44' W 079°36'816.0
2017-Jul-26 02:00N 25°52' W 079°33'816.0
2017-Jul-26 01:31N 25°59' W 079°33'815.9
2017-Jul-26 01:01N 26°07' W 079°32'815.6
2017-Jul-26 00:30N 26°15' W 079°29'917.1
2017-Jul-26 00:00N 26°18' W 079°20'3012.0
2017-Jul-25 21:29N 26°30' W 078°49'  
2017-Jul-18 17:49N 34°46' W 015°01'1019.8
2017-Jul-18 17:20N 34°47' W 014°49'720.0
2017-Jul-18 17:00N 34°48' W 014°41'1020.0
2017-Jul-18 16:30N 34°50' W 014°29'1019.9
2017-Jul-18 16:00N 34°51' W 014°17'1120.1
2017-Jul-18 15:28N 34°53' W 014°04'1220.3
2017-Jul-18 14:52N 34°55' W 013°50'1820.1
2017-Jul-18 13:58N 34°58' W 013°28'6420.1
2017-Jul-18 10:47N 35°09' W 012°11'1019.9
2017-Jul-18 10:17N 35°11' W 011°59'519.6
2017-Jul-18 10:00N 35°12' W 011°52'1619.8
2017-Jul-18 09:12N 35°15' W 011°33'1419.7
2017-Jul-18 08:30N 35°16' W 011°16'1020.0
2017-Jul-18 08:00N 35°18' W 011°04'1119.9
2017-Jul-18 07:27N 35°20' W 010°51'1119.9
2017-Jul-18 06:55N 35°22' W 010°38'820.2
2017-Jul-18 06:30N 35°23' W 010°28'1620.1
2017-Jul-18 05:42N 35°25' W 010°08'420.2
2017-Jul-18 05:30N 35°26' W 010°03'1020.2
2017-Jul-18 05:00N 35°28' W 009°51'1020.2
2017-Jul-18 04:31N 35°29' W 009°39'1020.1
2017-Jul-18 04:00N 35°31' W 009°27'1020.2
2017-Jul-18 03:31N 35°33' W 009°15'1020.1
2017-Jul-18 03:01N 35°35' W 009°03'1020.2
2017-Jul-18 02:30N 35°36' W 008°50'1020.1
2017-Jul-18 02:00N 35°37' W 008°38'1020.3
2017-Jul-18 01:30N 35°39' W 008°26'1019.9
2017-Jul-18 01:00N 35°41' W 008°13'1019.9
2017-Jul-18 00:30N 35°43' W 008°02'1019.9
2017-Jul-17 23:59N 35°45' W 007°49'1120.4
2017-Jul-17 23:28N 35°46' W 007°36'1020.5
2017-Jul-17 23:00N 35°48' W 007°24'1020.4
2017-Jul-17 22:30N 35°50' W 007°12'1420.6
2017-Jul-17 21:51N 35°52' W 006°56'720.4
2017-Jul-17 21:30N 35°54' W 006°47'1820.5
2017-Jul-17 20:38N 35°56' W 006°26'320.5
2017-Jul-17 20:29N 35°57' W 006°22'1120.4
2017-Jul-17 19:57N 35°57' W 006°09'1120.9
2017-Jul-17 19:27N 35°57' W 005°55'920.8
2017-Jul-17 19:00N 35°57' W 005°44'1020.8
2017-Jul-17 18:30N 35°59' W 005°31'714.4
2017-Jul-17 18:00N 36°03' W 005°24'1 2.2
2017-Jul-17 17:30N 36°04' W 005°23'0 0.7
2017-Jul-17 17:00N 36°04' W 005°23'2 3.5
2017-Jul-17 16:30N 36°05' W 005°21'4 8.2
2017-Jul-17 16:00N 36°07' W 005°17'2 3.5
2017-Jul-17 15:30N 36°09' W 005°17'0 0.0
2017-Jul-17 14:57N 36°09' W 005°17'0 0.1
2017-Jul-17 14:30N 36°09' W 005°17'0 0.1
2017-Jul-17 14:00N 36°09' W 005°17'0 0.0
2017-Jul-17 13:30N 36°09' W 005°17'  

Dump ship's entire track history